createdAt,value
2023-04-23T00:00:00.165Z,99.86
2023-04-23T00:02:29.560Z,99.66
2023-04-23T00:05:02.206Z,99.83
2023-04-23T00:07:29.948Z,99.82
2023-04-23T00:09:59.459Z,99.07
2023-04-23T00:12:27.332Z,98.17
2023-04-23T00:14:55.090Z,98.54
2023-04-23T00:17:21.811Z,98.69
2023-04-23T00:19:48.507Z,98.82
2023-04-23T00:22:16.408Z,99.63
2023-04-23T00:24:43.971Z,99.73
2023-04-23T00:27:12.546Z,99.73
2023-04-23T00:29:39.626Z,99.46
2023-04-23T00:32:06.543Z,99.88
2023-04-23T00:34:33.496Z,99.35
2023-04-23T00:37:01.993Z,99.60
2023-04-23T00:39:28.761Z,100.00
2023-04-23T00:41:55.864Z,100.00
2023-04-23T00:44:24.344Z,100.00
2023-04-23T00:46:52.345Z,100.00
2023-04-23T00:49:19.795Z,100.00
2023-04-23T00:51:46.837Z,100.00
2023-04-23T00:54:14.496Z,100.00
2023-04-23T00:56:41.733Z,100.00
2023-04-23T00:59:09.082Z,100.00
2023-04-23T01:01:38.030Z,100.00
2023-04-23T01:04:06.837Z,100.00
2023-04-23T01:06:33.965Z,100.00
2023-04-23T01:09:01.306Z,100.00
2023-04-23T01:11:28.252Z,100.00
2023-04-23T01:13:55.680Z,100.00
2023-04-23T01:16:22.317Z,100.00
2023-04-23T01:18:50.606Z,100.00
2023-04-23T01:21:18.477Z,100.00
2023-04-23T01:23:46.752Z,100.00
2023-04-23T01:26:13.509Z,100.00
2023-04-23T01:28:41.150Z,100.00
2023-04-23T01:31:08.517Z,100.00
2023-04-23T01:33:35.907Z,100.00
2023-04-23T01:36:03.372Z,100.00
2023-04-23T01:38:33.565Z,100.00
2023-04-23T01:41:02.046Z,100.00
2023-04-23T01:43:31.747Z,100.00
2023-04-23T01:46:00.643Z,100.00
2023-04-23T01:48:27.679Z,100.00
2023-04-23T01:50:54.974Z,100.00
2023-04-23T01:53:21.786Z,100.00
2023-04-23T01:55:51.571Z,100.00
2023-04-23T01:58:20.145Z,100.00
2023-04-23T02:00:47.145Z,100.00
2023-04-23T02:03:14.559Z,100.00
2023-04-23T02:05:42.410Z,100.00
2023-04-23T02:08:10.215Z,100.00
2023-04-23T02:10:37.401Z,100.00
2023-04-23T02:13:04.804Z,100.00
2023-04-23T02:15:33.187Z,100.00
2023-04-23T02:18:00.343Z,100.00
2023-04-23T02:20:27.351Z,100.00
2023-04-23T02:22:54.387Z,100.00
2023-04-23T02:25:21.244Z,100.00
2023-04-23T02:27:48.317Z,100.00
2023-04-23T02:30:15.432Z,100.00
2023-04-23T02:32:43.647Z,100.00
2023-04-23T02:35:10.495Z,100.00
2023-04-23T02:37:37.639Z,100.00
2023-04-23T02:40:05.334Z,100.00
2023-04-23T02:42:32.112Z,100.00
2023-04-23T02:44:59.052Z,100.00
2023-04-23T02:47:25.907Z,100.00
2023-04-23T02:49:54.462Z,100.00
2023-04-23T02:52:21.195Z,100.00
2023-04-23T02:54:47.954Z,100.00
2023-04-23T02:57:14.782Z,100.00
2023-04-23T02:59:41.590Z,100.00
2023-04-23T03:02:08.346Z,100.00
2023-04-23T03:04:35.418Z,100.00
2023-04-23T03:07:03.896Z,100.00
2023-04-23T03:09:30.682Z,100.00
2023-04-23T03:11:57.770Z,100.00
2023-04-23T03:14:24.607Z,100.00
2023-04-23T03:16:51.397Z,100.00
2023-04-23T03:19:18.426Z,100.00
2023-04-23T03:21:45.391Z,100.00
2023-04-23T03:24:14.625Z,100.00
2023-04-23T03:26:41.327Z,100.00
2023-04-23T03:29:08.402Z,100.00
2023-04-23T03:31:35.463Z,100.00
2023-04-23T03:34:02.593Z,100.00
2023-04-23T03:36:29.699Z,100.00
2023-04-23T03:38:56.571Z,100.00
2023-04-23T03:41:25.353Z,100.00
2023-04-23T03:43:52.331Z,100.00
2023-04-23T03:46:19.082Z,100.00
2023-04-23T03:48:46.177Z,100.00
2023-04-23T03:51:12.998Z,100.00
2023-04-23T03:53:39.732Z,100.00
2023-04-23T03:56:06.970Z,100.00
2023-04-23T03:58:35.372Z,100.00
2023-04-23T04:01:02.158Z,100.00
2023-04-23T04:03:29.023Z,100.00
2023-04-23T04:05:56.196Z,100.00
2023-04-23T04:08:22.974Z,100.00
2023-04-23T04:10:49.956Z,100.00
2023-04-23T04:13:16.935Z,100.00
2023-04-23T04:15:45.330Z,100.00
2023-04-23T04:18:12.600Z,100.00
2023-04-23T04:20:39.304Z,100.00
2023-04-23T04:23:06.167Z,100.00
2023-04-23T04:25:33.299Z,100.00
2023-04-23T04:28:00.284Z,100.00
2023-04-23T04:30:27.011Z,100.00
2023-04-23T04:32:55.331Z,100.00
2023-04-23T04:35:22.367Z,100.00
2023-04-23T04:37:49.153Z,100.00
2023-04-23T04:40:16.252Z,100.00
2023-04-23T04:42:43.063Z,100.00
2023-04-23T04:45:10.559Z,100.00
2023-04-23T04:47:37.596Z,100.00
2023-04-23T04:50:07.564Z,100.00
2023-04-23T04:52:34.387Z,100.00
2023-04-23T04:55:01.189Z,100.00
2023-04-23T04:57:27.967Z,100.00
2023-04-23T04:59:54.772Z,100.00
2023-04-23T05:02:21.701Z,100.00
2023-04-23T05:04:48.626Z,100.00
2023-04-23T05:07:17.006Z,100.00
2023-04-23T05:09:45.075Z,100.00
2023-04-23T05:12:12.374Z,100.00
2023-04-23T05:14:39.394Z,100.00
2023-04-23T05:17:06.921Z,100.00
2023-04-23T05:19:33.878Z,100.00
2023-04-23T05:22:00.616Z,100.00
2023-04-23T05:24:28.790Z,100.00
2023-04-23T05:26:56.093Z,100.00
2023-04-23T05:29:22.794Z,100.00
2023-04-23T05:31:50.347Z,100.00
2023-04-23T05:34:17.345Z,100.00
2023-04-23T05:36:44.171Z,100.00
2023-04-23T05:39:11.199Z,100.00
2023-04-23T05:41:39.977Z,100.00
2023-04-23T05:44:06.835Z,99.74
2023-04-23T05:46:33.870Z,99.89
2023-04-23T05:49:00.961Z,99.49
2023-04-23T05:51:27.785Z,99.08
2023-04-23T05:53:54.569Z,98.13
2023-04-23T05:56:21.774Z,98.82
2023-04-23T05:58:50.526Z,99.00
2023-04-23T06:01:17.897Z,99.43
2023-04-23T06:03:45.067Z,99.48
2023-04-23T06:06:12.316Z,100.00
2023-04-23T06:08:38.977Z,100.00
2023-04-23T06:11:06.261Z,99.78
2023-04-23T06:13:33.503Z,99.96
2023-04-23T06:16:01.965Z,99.29
2023-04-23T06:18:28.766Z,98.74
2023-04-23T06:20:55.505Z,98.61
2023-04-23T06:23:22.117Z,98.87
2023-04-23T06:25:48.955Z,98.57
2023-04-23T06:28:15.896Z,98.10
2023-04-23T06:30:42.766Z,97.87
2023-04-23T06:33:11.252Z,98.35
2023-04-23T06:35:37.995Z,98.03
2023-04-23T06:38:04.693Z,98.69
2023-04-23T06:40:32.005Z,98.39
2023-04-23T06:42:58.782Z,98.54
2023-04-23T06:45:25.905Z,98.34
2023-04-23T06:47:52.755Z,98.44
2023-04-23T06:50:20.950Z,98.51
2023-04-23T06:52:48.073Z,98.57
2023-04-23T06:55:15.304Z,99.04
2023-04-23T06:57:42.221Z,99.13
2023-04-23T07:00:10.647Z,99.48
2023-04-23T07:02:37.754Z,99.59
2023-04-23T07:05:05.575Z,99.96
2023-04-23T07:07:34.082Z,100.00
2023-04-23T07:10:01.186Z,100.00
2023-04-23T07:12:27.920Z,100.00
2023-04-23T07:14:55.310Z,100.00
2023-04-23T07:17:22.163Z,99.38
2023-04-23T07:19:49.023Z,99.44
2023-04-23T07:22:16.077Z,99.03
2023-04-23T07:24:44.498Z,99.56
2023-04-23T07:27:11.474Z,98.62
2023-04-23T07:29:39.753Z,98.57
2023-04-23T07:32:06.893Z,98.49
2023-04-23T07:34:36.240Z,96.50
2023-04-23T07:37:03.578Z,97.01
2023-04-23T07:39:34.011Z,97.17
2023-04-23T07:42:02.276Z,94.66
2023-04-23T07:44:29.343Z,91.85
2023-04-23T07:46:56.190Z,90.13
2023-04-23T07:49:22.991Z,87.51
2023-04-23T07:51:49.814Z,85.22
2023-04-23T07:54:16.763Z,85.78
2023-04-23T07:56:43.582Z,86.61
2023-04-23T07:59:11.893Z,87.69
2023-04-23T08:01:38.806Z,85.69
2023-04-23T08:04:05.985Z,85.69
2023-04-23T08:06:32.970Z,86.30
2023-04-23T08:08:59.718Z,89.29
2023-04-23T08:11:26.672Z,90.46
2023-04-23T08:13:53.404Z,90.03
2023-04-23T08:16:21.597Z,89.94
2023-04-23T08:19:01.684Z,90.69
2023-04-23T08:21:31.725Z,91.28
2023-04-23T08:23:58.569Z,90.78
2023-04-23T08:26:25.572Z,89.37
2023-04-23T08:28:54.259Z,87.89
2023-04-23T08:31:27.022Z,87.55
2023-04-23T08:33:54.249Z,87.61
2023-04-23T08:36:21.386Z,85.72
2023-04-23T08:38:48.190Z,84.05
2023-04-23T08:41:18.328Z,83.11
2023-04-23T08:43:51.633Z,85.16
2023-04-23T08:46:19.640Z,86.84
2023-04-23T08:48:50.318Z,86.25
2023-04-23T08:51:19.507Z,85.95
2023-04-23T08:53:51.454Z,84.76
2023-04-23T08:56:20.247Z,84.20
2023-04-23T08:58:47.491Z,84.17
2023-04-23T09:01:15.101Z,83.83
2023-04-23T09:03:42.942Z,86.94
2023-04-23T09:06:12.312Z,87.50
2023-04-23T09:08:39.109Z,86.65
2023-04-23T09:11:06.776Z,87.10
2023-04-23T09:13:37.200Z,84.94
2023-04-23T09:16:05.908Z,84.39
2023-04-23T09:18:32.764Z,85.23
2023-04-23T09:21:01.526Z,85.10
2023-04-23T09:23:29.852Z,85.71
2023-04-23T09:25:56.929Z,84.72
2023-04-23T09:28:34.810Z,81.32
2023-04-23T09:31:02.441Z,79.80
2023-04-23T09:33:31.765Z,80.57
2023-04-23T09:35:59.990Z,80.08
2023-04-23T09:38:27.929Z,80.56
2023-04-23T09:40:57.158Z,82.86
2023-04-23T09:43:25.213Z,81.05
2023-04-23T09:45:53.010Z,81.74
2023-04-23T09:48:21.354Z,82.65
2023-04-23T09:50:49.130Z,82.36
2023-04-23T09:53:16.031Z,81.40
2023-04-23T09:55:45.848Z,79.94
2023-04-23T09:58:16.105Z,81.03
2023-04-23T10:00:45.900Z,81.01
2023-04-23T10:03:13.638Z,81.55
2023-04-23T10:08:13.440Z,82.44
2023-04-23T10:10:59.572Z,80.77
2023-04-23T10:13:32.934Z,80.67
2023-04-23T10:16:14.099Z,80.14
2023-04-23T10:18:49.083Z,80.96
2023-04-23T10:21:17.811Z,81.92
2023-04-23T10:23:47.916Z,80.96
2023-04-23T10:26:16.923Z,78.70
2023-04-23T10:28:49.340Z,76.73
2023-04-23T10:31:20.339Z,77.07
2023-04-23T10:33:58.159Z,78.26
2023-04-23T10:36:27.950Z,77.87
2023-04-23T10:38:58.320Z,77.21
2023-04-23T10:41:35.571Z,75.61
2023-04-23T10:44:05.178Z,77.82
2023-04-23T10:46:33.466Z,77.60
2023-04-23T10:49:09.268Z,77.68
2023-04-23T10:54:08.156Z,79.25
2023-04-23T10:56:36.337Z,79.81
2023-04-23T10:59:06.874Z,80.08
2023-04-23T11:01:34.566Z,80.61
2023-04-23T11:04:24.464Z,81.45
2023-04-23T11:06:57.875Z,82.63
2023-04-23T11:09:37.967Z,83.19
2023-04-23T11:12:15.506Z,83.95
2023-04-23T11:14:47.591Z,84.17
2023-04-23T11:17:16.928Z,86.96
2023-04-23T11:20:09.975Z,86.99
2023-04-23T11:22:39.252Z,88.06
2023-04-23T11:25:10.632Z,88.28
2023-04-23T11:27:39.711Z,87.32
2023-04-23T11:30:13.459Z,86.65
2023-04-23T11:32:41.706Z,86.30
2023-04-23T11:35:11.951Z,85.25
2023-04-23T11:37:42.113Z,84.56
2023-04-23T11:40:12.387Z,85.13
2023-04-23T11:42:43.522Z,85.93
2023-04-23T11:45:17.979Z,86.43
2023-04-23T11:47:47.022Z,86.43
2023-04-23T11:50:19.511Z,87.04
2023-04-23T11:52:47.602Z,85.88
2023-04-23T11:55:14.924Z,85.90
2023-04-23T11:57:43.539Z,86.40
2023-04-23T12:00:18.451Z,86.06
2023-04-23T12:02:53.531Z,86.32
2023-04-23T12:05:22.639Z,86.61
2023-04-23T12:07:52.283Z,86.55
2023-04-23T12:10:21.057Z,88.02
2023-04-23T12:12:53.005Z,88.27
2023-04-23T12:15:21.734Z,88.55
2023-04-23T12:17:50.487Z,88.50
2023-04-23T12:20:19.749Z,87.61
2023-04-23T12:22:47.324Z,87.03
2023-04-23T12:25:14.880Z,87.65
2023-04-23T12:27:45.138Z,87.76
2023-04-23T12:30:13.425Z,88.38
2023-04-23T12:32:44.345Z,87.24
2023-04-23T12:35:11.972Z,87.99
2023-04-23T12:37:40.689Z,88.06
2023-04-23T12:40:09.723Z,88.10
2023-04-23T12:42:37.779Z,88.63
2023-04-23T12:45:09.700Z,88.39
2023-04-23T12:47:37.356Z,87.01
2023-04-23T12:50:08.491Z,87.26
2023-04-23T12:52:35.914Z,86.62
2023-04-23T12:55:03.633Z,87.15
2023-04-23T12:57:31.488Z,87.84
2023-04-23T12:59:58.740Z,87.25
2023-04-23T13:02:26.854Z,86.90
2023-04-23T13:04:54.587Z,86.15
2023-04-23T13:07:24.402Z,87.46
2023-04-23T13:09:52.013Z,86.60
2023-04-23T13:12:19.147Z,81.97
2023-04-23T13:14:45.924Z,81.85
2023-04-23T13:17:13.620Z,78.47
2023-04-23T13:19:41.721Z,77.75
2023-04-23T13:22:09.574Z,76.74
2023-04-23T13:24:41.273Z,75.14
2023-04-23T13:27:09.579Z,70.51
2023-04-23T13:29:37.310Z,69.31
2023-04-23T13:32:05.666Z,65.88
2023-04-23T13:34:34.038Z,62.03
2023-04-23T13:37:01.825Z,58.47
2023-04-23T13:39:29.211Z,58.95
2023-04-23T13:42:08.997Z,56.33
2023-04-23T13:44:37.875Z,54.80
2023-04-23T13:47:05.776Z,55.74
2023-04-23T13:49:33.439Z,56.57
2023-04-23T13:52:01.255Z,55.87
2023-04-23T13:54:28.103Z,56.22
2023-04-23T13:56:56.116Z,57.68
2023-04-23T13:59:26.265Z,55.90
2023-04-23T14:01:53.908Z,55.19
2023-04-23T14:04:21.532Z,55.73
2023-04-23T14:06:49.463Z,55.69
2023-04-23T14:09:17.296Z,55.22
2023-04-23T14:11:44.892Z,54.89
2023-04-23T14:14:12.836Z,55.48
2023-04-23T14:16:42.829Z,55.30
2023-04-23T14:19:10.328Z,56.12
2023-04-23T14:21:40.256Z,55.71
2023-04-23T14:24:16.805Z,55.18
2023-04-23T14:26:49.411Z,53.00
2023-04-23T14:29:30.160Z,51.69
2023-04-23T14:31:59.560Z,52.93
2023-04-23T14:34:28.189Z,53.75
2023-04-23T14:36:55.507Z,54.41
2023-04-23T14:39:23.592Z,56.28
2023-04-23T14:41:50.954Z,64.22
2023-04-23T14:44:18.663Z,75.35
2023-04-23T14:46:46.338Z,83.88
2023-04-23T14:49:15.451Z,90.56
2023-04-23T14:51:42.892Z,94.07
2023-04-23T14:54:10.932Z,96.76
2023-04-23T14:56:39.763Z,98.14
2023-04-23T14:59:06.917Z,98.99
2023-04-23T15:01:35.620Z,100.00
2023-04-23T15:04:03.749Z,100.00
2023-04-23T15:06:32.494Z,100.00
2023-04-23T15:09:00.249Z,100.00
2023-04-23T15:11:27.995Z,100.00
2023-04-23T15:14:03.018Z,100.00
2023-04-23T15:19:04.438Z,100.00
2023-04-23T15:21:34.319Z,100.00
2023-04-23T15:24:03.634Z,100.00
2023-04-23T15:26:31.864Z,100.00
2023-04-23T15:28:59.407Z,100.00
2023-04-23T15:31:27.193Z,100.00
2023-04-23T15:33:54.951Z,100.00
2023-04-23T15:36:22.615Z,100.00
2023-04-23T15:38:53.597Z,100.00
2023-04-23T15:41:21.286Z,100.00
2023-04-23T15:43:48.338Z,100.00
2023-04-23T15:46:17.255Z,100.00
2023-04-23T15:48:44.670Z,100.00
2023-04-23T15:51:12.984Z,100.00
2023-04-23T15:53:41.920Z,100.00
2023-04-23T15:56:12.205Z,100.00
2023-04-23T15:58:39.900Z,100.00
2023-04-23T16:01:07.801Z,100.00
2023-04-23T16:03:35.906Z,100.00
2023-04-23T16:06:03.581Z,100.00
2023-04-23T16:08:32.644Z,100.00
2023-04-23T16:11:00.729Z,100.00
2023-04-23T16:13:30.585Z,100.00
2023-04-23T16:15:57.734Z,100.00
2023-04-23T16:18:25.459Z,100.00
2023-04-23T16:20:52.931Z,100.00
2023-04-23T16:23:20.562Z,100.00
2023-04-23T16:25:48.281Z,100.00
2023-04-23T16:28:16.431Z,100.00
2023-04-23T16:30:45.503Z,100.00
2023-04-23T16:33:14.446Z,100.00
2023-04-23T16:35:42.314Z,100.00
2023-04-23T16:38:10.224Z,100.00
2023-04-23T16:40:37.458Z,100.00
2023-04-23T16:43:05.417Z,100.00
2023-04-23T16:45:32.520Z,100.00
2023-04-23T16:48:02.753Z,100.00
2023-04-23T16:50:30.420Z,100.00
2023-04-23T16:52:58.082Z,100.00
2023-04-23T16:55:26.436Z,100.00
2023-04-23T16:57:54.427Z,100.00
2023-04-23T17:00:21.239Z,100.00
2023-04-23T17:02:48.963Z,100.00
2023-04-23T17:05:18.968Z,100.00
2023-04-23T17:07:46.882Z,98.52
2023-04-23T17:10:14.646Z,96.80
2023-04-23T17:12:42.094Z,96.13
2023-04-23T17:15:10.885Z,96.93
2023-04-23T17:17:38.556Z,96.17
2023-04-23T17:20:08.000Z,97.12
2023-04-23T17:22:37.551Z,96.78
2023-04-23T17:25:05.004Z,97.92
2023-04-23T17:27:33.455Z,99.01
2023-04-23T17:30:01.106Z,99.85
2023-04-23T17:32:28.590Z,100.00
2023-04-23T17:35:03.050Z,100.00
2023-04-23T17:37:38.353Z,100.00
2023-04-23T17:40:06.311Z,100.00
2023-04-23T17:42:35.205Z,100.00
2023-04-23T17:45:03.385Z,100.00
2023-04-23T17:47:31.029Z,100.00
2023-04-23T17:49:59.071Z,100.00
2023-04-23T17:52:27.257Z,100.00
2023-04-23T17:54:56.624Z,100.00
2023-04-23T17:57:23.619Z,100.00
2023-04-23T17:59:50.811Z,100.00
2023-04-23T18:02:18.768Z,100.00
2023-04-23T18:04:46.838Z,100.00
2023-04-23T18:07:15.039Z,100.00
2023-04-23T18:09:42.209Z,100.00
2023-04-23T18:12:10.763Z,100.00
2023-04-23T18:14:38.586Z,100.00
2023-04-23T18:17:06.306Z,100.00
2023-04-23T18:19:33.867Z,100.00
2023-04-23T18:22:01.677Z,100.00
2023-04-23T18:24:28.988Z,100.00
2023-04-23T18:26:57.033Z,100.00
2023-04-23T18:29:26.173Z,100.00
2023-04-23T18:31:53.540Z,100.00
2023-04-23T18:34:22.832Z,100.00
2023-04-23T18:36:54.791Z,100.00
2023-04-23T18:39:23.142Z,100.00
2023-04-23T18:41:51.355Z,100.00
2023-04-23T18:44:19.048Z,100.00
2023-04-23T18:46:50.378Z,100.00
2023-04-23T18:49:40.137Z,100.00
2023-04-23T18:52:08.338Z,100.00
2023-04-23T18:54:35.815Z,100.00
2023-04-23T18:57:03.482Z,100.00
2023-04-23T18:59:32.713Z,100.00
2023-04-23T19:02:01.911Z,100.00
2023-04-23T19:04:30.452Z,100.00
2023-04-23T19:06:57.918Z,100.00
2023-04-23T19:09:25.748Z,100.00
2023-04-23T19:11:55.515Z,100.00
2023-04-23T19:14:23.215Z,100.00
2023-04-23T19:16:51.532Z,100.00
2023-04-23T19:19:21.777Z,100.00
2023-04-23T19:21:49.237Z,100.00
2023-04-23T19:24:16.656Z,100.00
2023-04-23T19:26:44.088Z,100.00
2023-04-23T19:29:12.085Z,100.00
2023-04-23T19:31:39.582Z,100.00
2023-04-23T19:34:07.570Z,100.00
2023-04-23T19:36:40.797Z,100.00
2023-04-23T19:39:10.538Z,100.00
2023-04-23T19:41:38.467Z,100.00
2023-04-23T19:44:06.072Z,100.00
2023-04-23T19:46:33.734Z,100.00
2023-04-23T19:49:01.383Z,100.00
2023-04-23T19:51:33.842Z,100.00
2023-04-23T19:54:06.070Z,100.00
2023-04-23T19:56:33.635Z,100.00
2023-04-23T19:59:01.387Z,100.00
2023-04-23T20:01:29.017Z,100.00
2023-04-23T20:03:56.533Z,100.00
2023-04-23T20:06:23.601Z,100.00
2023-04-23T20:08:51.159Z,100.00
2023-04-23T20:11:20.774Z,100.00
2023-04-23T20:13:48.745Z,100.00
2023-04-23T20:16:16.226Z,100.00
2023-04-23T20:18:45.375Z,100.00
2023-04-23T20:21:12.650Z,100.00
2023-04-23T20:23:42.100Z,100.00
2023-04-23T20:26:09.107Z,100.00
2023-04-23T20:28:44.258Z,100.00
2023-04-23T20:31:11.626Z,100.00
2023-04-23T20:33:38.435Z,100.00
2023-04-23T20:36:06.280Z,100.00
2023-04-23T20:38:33.964Z,100.00
2023-04-23T20:41:00.888Z,100.00
2023-04-23T20:43:29.131Z,100.00
2023-04-23T20:45:58.533Z,100.00
2023-04-23T20:48:26.144Z,100.00
2023-04-23T20:50:54.578Z,100.00
2023-04-23T20:53:22.129Z,100.00
2023-04-23T20:55:49.575Z,100.00
2023-04-23T20:58:17.613Z,100.00
2023-04-23T21:00:45.191Z,100.00
2023-04-23T21:03:15.721Z,100.00
2023-04-23T21:05:44.637Z,100.00
2023-04-23T21:08:12.650Z,100.00
2023-04-23T21:10:41.272Z,100.00
2023-04-23T21:13:11.604Z,100.00
2023-04-23T21:15:40.031Z,100.00
2023-04-23T21:18:08.538Z,100.00
2023-04-23T21:20:38.219Z,100.00
2023-04-23T21:23:05.766Z,100.00
2023-04-23T21:25:34.858Z,100.00
2023-04-23T21:28:03.120Z,100.00
2023-04-23T21:30:45.075Z,100.00
2023-04-23T21:33:13.295Z,100.00
2023-04-23T21:35:43.130Z,100.00
2023-04-23T21:38:11.190Z,100.00
2023-04-23T21:40:39.129Z,100.00
2023-04-23T21:43:08.294Z,100.00
2023-04-23T21:45:36.384Z,100.00
2023-04-23T21:48:05.200Z,100.00
2023-04-23T21:50:33.555Z,100.00
2023-04-23T21:53:02.834Z,100.00
2023-04-23T21:55:31.483Z,100.00
2023-04-23T21:58:09.803Z,100.00
2023-04-23T22:00:45.350Z,100.00
2023-04-23T22:03:14.671Z,100.00
2023-04-23T22:05:49.964Z,100.00
2023-04-23T22:08:19.581Z,100.00
2023-04-23T22:10:47.247Z,100.00
2023-04-23T22:13:14.888Z,100.00
2023-04-23T22:15:43.245Z,100.00
2023-04-23T22:18:10.912Z,100.00
2023-04-23T22:20:39.121Z,100.00
2023-04-23T22:23:07.153Z,100.00
2023-04-23T22:25:35.917Z,100.00
2023-04-23T22:28:03.867Z,100.00
2023-04-23T22:30:31.440Z,100.00
2023-04-23T22:32:59.227Z,100.00
2023-04-23T22:35:27.307Z,100.00
2023-04-23T22:37:54.214Z,100.00
2023-04-23T22:40:22.169Z,100.00
2023-04-23T22:42:51.632Z,100.00
2023-04-23T22:45:19.803Z,100.00
2023-04-23T22:47:47.839Z,100.00
2023-04-23T22:50:15.366Z,100.00
2023-04-23T22:52:42.969Z,100.00
2023-04-23T22:55:10.821Z,100.00
2023-04-23T22:57:38.480Z,100.00
2023-04-23T23:00:12.809Z,100.00
2023-04-23T23:02:40.661Z,100.00
2023-04-23T23:05:08.569Z,100.00
2023-04-23T23:07:37.893Z,100.00
2023-04-23T23:10:05.386Z,100.00
2023-04-23T23:12:33.520Z,100.00
2023-04-23T23:15:03.687Z,100.00
2023-04-23T23:17:33.092Z,100.00
2023-04-23T23:20:00.821Z,100.00
2023-04-23T23:22:28.042Z,100.00
2023-04-23T23:24:56.591Z,100.00
2023-04-23T23:27:23.514Z,100.00
2023-04-23T23:29:51.517Z,100.00
2023-04-23T23:32:19.176Z,100.00
2023-04-23T23:34:48.576Z,100.00
2023-04-23T23:37:16.233Z,100.00
2023-04-23T23:39:44.012Z,100.00
2023-04-23T23:42:11.325Z,100.00
2023-04-23T23:44:38.963Z,100.00
2023-04-23T23:47:06.915Z,100.00
2023-04-23T23:49:35.294Z,100.00
2023-04-23T23:52:04.848Z,100.00
2023-04-23T23:54:32.036Z,100.00
2023-04-23T23:56:59.450Z,99.92
2023-04-23T23:59:27.003Z,99.81
